sensor_id;sensor_type;location;lat;lon;timestamp;temperature;humidity
20777;DHT22;10548;47.504;8.248;2023-07-13T00:01:54;18.50;99.90
20777;DHT22;10548;47.504;8.248;2023-07-13T00:04:23;18.50;99.90
20777;DHT22;10548;47.504;8.248;2023-07-13T00:06:53;18.50;99.90
20777;DHT22;10548;47.504;8.248;2023-07-13T00:09:20;18.50;99.90
20777;DHT22;10548;47.504;8.248;2023-07-13T00:11:53;18.40;99.90
20777;DHT22;10548;47.504;8.248;2023-07-13T00:14:21;18.40;99.90
20777;DHT22;10548;47.504;8.248;2023-07-13T00:16:48;18.30;99.90
20777;DHT22;10548;47.504;8.248;2023-07-13T00:19:16;18.40;99.90
20777;DHT22;10548;47.504;8.248;2023-07-13T00:21:43;18.40;99.90
20777;DHT22;10548;47.504;8.248;2023-07-13T00:24:12;18.30;99.90
20777;DHT22;10548;47.504;8.248;2023-07-13T00:26:40;18.30;99.90
20777;DHT22;10548;47.504;8.248;2023-07-13T00:29:08;18.30;99.90
20777;DHT22;10548;47.504;8.248;2023-07-13T00:31:36;18.20;99.90
20777;DHT22;10548;47.504;8.248;2023-07-13T00:34:04;18.20;99.90
20777;DHT22;10548;47.504;8.248;2023-07-13T00:36:31;18.20;99.90
20777;DHT22;10548;47.504;8.248;2023-07-13T00:38:58;18.20;99.90
20777;DHT22;10548;47.504;8.248;2023-07-13T00:41:26;18.30;99.90
20777;DHT22;10548;47.504;8.248;2023-07-13T00:43:53;18.20;99.90
20777;DHT22;10548;47.504;8.248;2023-07-13T00:46:26;18.20;99.90
20777;DHT22;10548;47.504;8.248;2023-07-13T00:48:56;18.20;99.90
20777;DHT22;10548;47.504;8.248;2023-07-13T00:51:30;18.30;99.90
20777;DHT22;10548;47.504;8.248;2023-07-13T00:54:00;18.30;99.90
20777;DHT22;10548;47.504;8.248;2023-07-13T00:56:31;18.20;99.90
20777;DHT22;10548;47.504;8.248;2023-07-13T00:59:00;18.20;99.90
20777;DHT22;10548;47.504;8.248;2023-07-13T01:01:29;18.10;99.90
20777;DHT22;10548;47.504;8.248;2023-07-13T01:03:57;18.00;99.90
20777;DHT22;10548;47.504;8.248;2023-07-13T01:06:24;18.00;99.90
20777;DHT22;10548;47.504;8.248;2023-07-13T01:08:52;18.00;99.90
20777;DHT22;10548;47.504;8.248;2023-07-13T01:11:21;17.90;99.90
20777;DHT22;10548;47.504;8.248;2023-07-13T01:13:49;17.90;99.90
20777;DHT22;10548;47.504;8.248;2023-07-13T01:16:30;17.90;99.90
20777;DHT22;10548;47.504;8.248;2023-07-13T01:18:58;17.90;99.90
20777;DHT22;10548;47.504;8.248;2023-07-13T01:21:27;17.90;99.90
20777;DHT22;10548;47.504;8.248;2023-07-13T01:23:54;17.90;99.90
20777;DHT22;10548;47.504;8.248;2023-07-13T01:26:21;17.80;99.90
20777;DHT22;10548;47.504;8.248;2023-07-13T01:28:49;17.80;99.90
20777;DHT22;10548;47.504;8.248;2023-07-13T01:31:16;17.80;99.90
20777;DHT22;10548;47.504;8.248;2023-07-13T01:33:43;17.80;99.90
20777;DHT22;10548;47.504;8.248;2023-07-13T01:36:11;17.80;99.90
20777;DHT22;10548;47.504;8.248;2023-07-13T01:38:39;17.80;99.90
20777;DHT22;10548;47.504;8.248;2023-07-13T01:41:08;17.70;99.90
20777;DHT22;10548;47.504;8.248;2023-07-13T01:43:35;17.70;99.90
20777;DHT22;10548;47.504;8.248;2023-07-13T01:46:03;17.70;99.90
20777;DHT22;10548;47.504;8.248;2023-07-13T01:48:48;17.80;99.90
20777;DHT22;10548;47.504;8.248;2023-07-13T01:51:15;17.80;99.90
20777;DHT22;10548;47.504;8.248;2023-07-13T01:53:44;17.80;99.90
20777;DHT22;10548;47.504;8.248;2023-07-13T01:56:12;17.80;99.90
20777;DHT22;10548;47.504;8.248;2023-07-13T01:58:39;17.80;99.90
20777;DHT22;10548;47.504;8.248;2023-07-13T02:01:06;17.90;99.90
20777;DHT22;10548;47.504;8.248;2023-07-13T02:03:33;18.00;99.90
20777;DHT22;10548;47.504;8.248;2023-07-13T02:06:01;17.90;99.90
20777;DHT22;10548;47.504;8.248;2023-07-13T02:08:28;17.90;99.90
20777;DHT22;10548;47.504;8.248;2023-07-13T02:10:56;18.00;99.90
20777;DHT22;10548;47.504;8.248;2023-07-13T02:13:23;18.10;99.90
20777;DHT22;10548;47.504;8.248;2023-07-13T02:15:51;18.10;99.90
20777;DHT22;10548;47.504;8.248;2023-07-13T02:18:18;18.10;99.90
20777;DHT22;10548;47.504;8.248;2023-07-13T02:20:45;18.10;99.90
20777;DHT22;10548;47.504;8.248;2023-07-13T02:23:12;18.00;99.90
20777;DHT22;10548;47.504;8.248;2023-07-13T02:25:39;18.00;99.90
20777;DHT22;10548;47.504;8.248;2023-07-13T02:28:08;18.10;99.90
20777;DHT22;10548;47.504;8.248;2023-07-13T02:30:35;18.10;99.90
20777;DHT22;10548;47.504;8.248;2023-07-13T02:33:02;18.10;99.90
20777;DHT22;10548;47.504;8.248;2023-07-13T02:35:30;18.10;99.90
20777;DHT22;10548;47.504;8.248;2023-07-13T02:37:58;18.10;99.90
20777;DHT22;10548;47.504;8.248;2023-07-13T02:40:25;18.00;99.90
20777;DHT22;10548;47.504;8.248;2023-07-13T02:42:53;18.00;99.90
20777;DHT22;10548;47.504;8.248;2023-07-13T02:45:20;18.10;99.90
20777;DHT22;10548;47.504;8.248;2023-07-13T02:47:47;18.10;99.90
20777;DHT22;10548;47.504;8.248;2023-07-13T02:50:14;18.20;99.90
20777;DHT22;10548;47.504;8.248;2023-07-13T02:52:41;18.10;99.90
20777;DHT22;10548;47.504;8.248;2023-07-13T02:55:09;18.10;99.90
20777;DHT22;10548;47.504;8.248;2023-07-13T02:57:36;18.10;99.90
20777;DHT22;10548;47.504;8.248;2023-07-13T03:00:04;18.10;99.90
20777;DHT22;10548;47.504;8.248;2023-07-13T03:02:33;18.10;99.90
20777;DHT22;10548;47.504;8.248;2023-07-13T03:05:02;18.20;99.90
20777;DHT22;10548;47.504;8.248;2023-07-13T03:07:30;18.10;99.90
20777;DHT22;10548;47.504;8.248;2023-07-13T03:09:58;18.20;99.90
20777;DHT22;10548;47.504;8.248;2023-07-13T03:12:35;18.30;99.90
20777;DHT22;10548;47.504;8.248;2023-07-13T03:15:06;18.20;99.90
20777;DHT22;10548;47.504;8.248;2023-07-13T03:17:37;18.00;99.90
20777;DHT22;10548;47.504;8.248;2023-07-13T03:20:05;18.10;99.90
20777;DHT22;10548;47.504;8.248;2023-07-13T03:22:34;18.00;99.90
20777;DHT22;10548;47.504;8.248;2023-07-13T03:25:01;18.00;99.90
20777;DHT22;10548;47.504;8.248;2023-07-13T03:27:28;18.00;99.90
20777;DHT22;10548;47.504;8.248;2023-07-13T03:29:55;18.00;99.90
20777;DHT22;10548;47.504;8.248;2023-07-13T03:32:22;17.90;99.90
20777;DHT22;10548;47.504;8.248;2023-07-13T03:34:49;17.80;99.90
20777;DHT22;10548;47.504;8.248;2023-07-13T03:37:17;17.90;99.90
20777;DHT22;10548;47.504;8.248;2023-07-13T03:39:44;17.90;99.90
20777;DHT22;10548;47.504;8.248;2023-07-13T03:42:11;17.90;99.90
20777;DHT22;10548;47.504;8.248;2023-07-13T03:44:40;17.90;99.90
20777;DHT22;10548;47.504;8.248;2023-07-13T03:47:07;18.00;99.90
20777;DHT22;10548;47.504;8.248;2023-07-13T03:49:36;17.90;99.90
20777;DHT22;10548;47.504;8.248;2023-07-13T03:52:04;17.80;99.90
20777;DHT22;10548;47.504;8.248;2023-07-13T03:54:31;17.90;99.90
20777;DHT22;10548;47.504;8.248;2023-07-13T03:57:01;17.90;99.90
20777;DHT22;10548;47.504;8.248;2023-07-13T03:59:30;17.90;99.90
20777;DHT22;10548;47.504;8.248;2023-07-13T04:01:57;17.90;99.90
20777;DHT22;10548;47.504;8.248;2023-07-13T04:04:24;17.90;99.90
20777;DHT22;10548;47.504;8.248;2023-07-13T04:06:52;17.80;99.90
20777;DHT22;10548;47.504;8.248;2023-07-13T04:09:20;17.90;99.90
20777;DHT22;10548;47.504;8.248;2023-07-13T04:11:48;18.00;99.90
20777;DHT22;10548;47.504;8.248;2023-07-13T04:14:15;18.00;99.90
20777;DHT22;10548;47.504;8.248;2023-07-13T04:16:43;18.00;99.90
20777;DHT22;10548;47.504;8.248;2023-07-13T04:19:10;17.90;99.90
20777;DHT22;10548;47.504;8.248;2023-07-13T04:21:37;17.90;99.90
20777;DHT22;10548;47.504;8.248;2023-07-13T04:24:05;18.00;99.90
20777;DHT22;10548;47.504;8.248;2023-07-13T04:26:32;18.10;99.90
20777;DHT22;10548;47.504;8.248;2023-07-13T04:29:02;18.10;99.90
20777;DHT22;10548;47.504;8.248;2023-07-13T04:31:31;18.00;99.90
20777;DHT22;10548;47.504;8.248;2023-07-13T04:33:59;18.00;99.90
20777;DHT22;10548;47.504;8.248;2023-07-13T04:36:26;18.10;99.90
20777;DHT22;10548;47.504;8.248;2023-07-13T04:38:54;18.00;99.90
20777;DHT22;10548;47.504;8.248;2023-07-13T04:41:21;18.10;99.90
20777;DHT22;10548;47.504;8.248;2023-07-13T04:43:48;18.10;99.90
20777;DHT22;10548;47.504;8.248;2023-07-13T04:46:16;18.10;99.90
20777;DHT22;10548;47.504;8.248;2023-07-13T04:48:49;18.20;99.90
20777;DHT22;10548;47.504;8.248;2023-07-13T04:51:17;18.20;99.90
20777;DHT22;10548;47.504;8.248;2023-07-13T04:53:45;18.00;99.90
20777;DHT22;10548;47.504;8.248;2023-07-13T04:56:12;18.20;99.90
20777;DHT22;10548;47.504;8.248;2023-07-13T04:58:39;18.10;99.90
20777;DHT22;10548;47.504;8.248;2023-07-13T05:01:07;18.10;99.90
20777;DHT22;10548;47.504;8.248;2023-07-13T05:03:36;18.10;99.90
20777;DHT22;10548;47.504;8.248;2023-07-13T05:06:07;18.10;99.90
20777;DHT22;10548;47.504;8.248;2023-07-13T05:08:36;18.10;99.90
20777;DHT22;10548;47.504;8.248;2023-07-13T05:11:05;18.20;99.90
20777;DHT22;10548;47.504;8.248;2023-07-13T05:13:34;18.20;99.90
20777;DHT22;10548;47.504;8.248;2023-07-13T05:16:03;18.10;99.90
20777;DHT22;10548;47.504;8.248;2023-07-13T05:18:30;18.10;99.90
20777;DHT22;10548;47.504;8.248;2023-07-13T05:21:03;18.00;99.90
20777;DHT22;10548;47.504;8.248;2023-07-13T05:23:32;18.00;99.90
20777;DHT22;10548;47.504;8.248;2023-07-13T05:26:00;18.10;99.90
20777;DHT22;10548;47.504;8.248;2023-07-13T05:28:30;18.10;99.90
20777;DHT22;10548;47.504;8.248;2023-07-13T05:30:58;18.10;99.90
20777;DHT22;10548;47.504;8.248;2023-07-13T05:33:26;18.10;99.90
20777;DHT22;10548;47.504;8.248;2023-07-13T05:35:53;18.20;99.90
20777;DHT22;10548;47.504;8.248;2023-07-13T05:38:20;18.30;99.90
20777;DHT22;10548;47.504;8.248;2023-07-13T05:40:47;18.20;99.90
20777;DHT22;10548;47.504;8.248;2023-07-13T05:43:14;18.10;99.90
20777;DHT22;10548;47.504;8.248;2023-07-13T05:45:42;18.00;99.90
20777;DHT22;10548;47.504;8.248;2023-07-13T05:48:09;18.10;99.90
20777;DHT22;10548;47.504;8.248;2023-07-13T05:50:36;18.10;99.90
20777;DHT22;10548;47.504;8.248;2023-07-13T05:53:03;18.10;99.90
20777;DHT22;10548;47.504;8.248;2023-07-13T05:55:31;18.10;99.90
20777;DHT22;10548;47.504;8.248;2023-07-13T05:57:59;18.00;99.90
20777;DHT22;10548;47.504;8.248;2023-07-13T06:00:27;17.90;99.90
20777;DHT22;10548;47.504;8.248;2023-07-13T06:02:55;17.90;99.90
20777;DHT22;10548;47.504;8.248;2023-07-13T06:05:22;17.90;99.90
20777;DHT22;10548;47.504;8.248;2023-07-13T06:07:50;18.00;99.90
20777;DHT22;10548;47.504;8.248;2023-07-13T06:10:17;17.90;99.90
20777;DHT22;10548;47.504;8.248;2023-07-13T06:12:44;17.90;99.90
20777;DHT22;10548;47.504;8.248;2023-07-13T06:15:11;17.90;99.90
20777;DHT22;10548;47.504;8.248;2023-07-13T06:17:38;17.90;99.90
20777;DHT22;10548;47.504;8.248;2023-07-13T06:20:07;17.90;99.90
20777;DHT22;10548;47.504;8.248;2023-07-13T06:22:34;17.90;99.90
20777;DHT22;10548;47.504;8.248;2023-07-13T06:25:01;17.80;99.90
20777;DHT22;10548;47.504;8.248;2023-07-13T06:27:28;17.70;99.90
20777;DHT22;10548;47.504;8.248;2023-07-13T06:29:57;17.80;99.90
20777;DHT22;10548;47.504;8.248;2023-07-13T06:32:24;18.00;99.90
20777;DHT22;10548;47.504;8.248;2023-07-13T06:34:51;18.00;99.90
20777;DHT22;10548;47.504;8.248;2023-07-13T06:37:21;18.00;99.90
20777;DHT22;10548;47.504;8.248;2023-07-13T06:39:48;18.10;99.90
20777;DHT22;10548;47.504;8.248;2023-07-13T06:42:16;18.10;99.90
20777;DHT22;10548;47.504;8.248;2023-07-13T06:44:44;18.00;99.90
20777;DHT22;10548;47.504;8.248;2023-07-13T06:47:11;18.10;99.90
20777;DHT22;10548;47.504;8.248;2023-07-13T06:49:38;18.30;99.90
20777;DHT22;10548;47.504;8.248;2023-07-13T06:52:06;18.40;99.90
20777;DHT22;10548;47.504;8.248;2023-07-13T06:54:33;18.50;99.90
20777;DHT22;10548;47.504;8.248;2023-07-13T06:57:01;18.40;99.90
20777;DHT22;10548;47.504;8.248;2023-07-13T06:59:29;18.40;99.90
20777;DHT22;10548;47.504;8.248;2023-07-13T07:01:56;18.20;99.90
20777;DHT22;10548;47.504;8.248;2023-07-13T07:04:23;18.10;99.90
20777;DHT22;10548;47.504;8.248;2023-07-13T07:06:50;18.10;99.90
20777;DHT22;10548;47.504;8.248;2023-07-13T07:09:17;18.20;99.90
20777;DHT22;10548;47.504;8.248;2023-07-13T07:11:44;18.30;99.90
20777;DHT22;10548;47.504;8.248;2023-07-13T07:14:28;18.30;99.90
20777;DHT22;10548;47.504;8.248;2023-07-13T07:16:55;18.40;99.90
20777;DHT22;10548;47.504;8.248;2023-07-13T07:19:22;18.40;99.90
20777;DHT22;10548;47.504;8.248;2023-07-13T07:21:50;18.40;99.90
20777;DHT22;10548;47.504;8.248;2023-07-13T07:24:17;18.30;99.90
20777;DHT22;10548;47.504;8.248;2023-07-13T07:26:44;18.30;99.90
20777;DHT22;10548;47.504;8.248;2023-07-13T07:29:14;18.40;99.90
20777;DHT22;10548;47.504;8.248;2023-07-13T07:31:44;18.30;99.90
20777;DHT22;10548;47.504;8.248;2023-07-13T07:34:14;18.40;99.90
20777;DHT22;10548;47.504;8.248;2023-07-13T07:36:41;18.40;99.90
20777;DHT22;10548;47.504;8.248;2023-07-13T07:39:11;18.30;99.90
20777;DHT22;10548;47.504;8.248;2023-07-13T07:41:38;18.40;99.90
20777;DHT22;10548;47.504;8.248;2023-07-13T07:44:08;18.40;99.90
20777;DHT22;10548;47.504;8.248;2023-07-13T07:46:37;18.60;99.90
20777;DHT22;10548;47.504;8.248;2023-07-13T07:49:04;18.90;99.90
20777;DHT22;10548;47.504;8.248;2023-07-13T07:51:31;19.00;99.90
20777;DHT22;10548;47.504;8.248;2023-07-13T07:53:58;19.10;99.90
20777;DHT22;10548;47.504;8.248;2023-07-13T07:56:26;19.10;99.90
20777;DHT22;10548;47.504;8.248;2023-07-13T07:58:56;18.90;99.90
20777;DHT22;10548;47.504;8.248;2023-07-13T08:01:26;19.10;99.90
20777;DHT22;10548;47.504;8.248;2023-07-13T08:04:01;19.10;99.90
20777;DHT22;10548;47.504;8.248;2023-07-13T08:06:32;19.40;99.90
20777;DHT22;10548;47.504;8.248;2023-07-13T08:09:03;19.60;99.90
20777;DHT22;10548;47.504;8.248;2023-07-13T08:11:31;19.80;99.90
20777;DHT22;10548;47.504;8.248;2023-07-13T08:14:01;19.60;99.90
20777;DHT22;10548;47.504;8.248;2023-07-13T08:16:28;19.40;99.90
20777;DHT22;10548;47.504;8.248;2023-07-13T08:18:55;19.50;99.90
20777;DHT22;10548;47.504;8.248;2023-07-13T08:21:23;19.50;99.90
20777;DHT22;10548;47.504;8.248;2023-07-13T08:23:50;19.40;99.90
20777;DHT22;10548;47.504;8.248;2023-07-13T08:26:17;19.30;99.90
20777;DHT22;10548;47.504;8.248;2023-07-13T08:28:44;19.60;99.90
20777;DHT22;10548;47.504;8.248;2023-07-13T08:31:11;19.80;99.90
20777;DHT22;10548;47.504;8.248;2023-07-13T08:33:39;20.20;99.90
20777;DHT22;10548;47.504;8.248;2023-07-13T08:36:07;20.50;99.90
20777;DHT22;10548;47.504;8.248;2023-07-13T08:38:35;21.10;99.90
20777;DHT22;10548;47.504;8.248;2023-07-13T08:41:13;21.10;99.90
20777;DHT22;10548;47.504;8.248;2023-07-13T08:43:41;20.40;99.90
20777;DHT22;10548;47.504;8.248;2023-07-13T08:46:36;20.60;99.90
20777;DHT22;10548;47.504;8.248;2023-07-13T08:49:10;20.50;99.90
20777;DHT22;10548;47.504;8.248;2023-07-13T08:51:53;21.00;99.90
20777;DHT22;10548;47.504;8.248;2023-07-13T08:54:34;21.30;99.90
20777;DHT22;10548;47.504;8.248;2023-07-13T08:57:13;21.30;99.90
20777;DHT22;10548;47.504;8.248;2023-07-13T08:59:41;21.70;99.90
20777;DHT22;10548;47.504;8.248;2023-07-13T09:02:47;21.90;99.90
20777;DHT22;10548;47.504;8.248;2023-07-13T09:05:29;22.10;99.90
20777;DHT22;10548;47.504;8.248;2023-07-13T09:08:19;21.70;99.90
20777;DHT22;10548;47.504;8.248;2023-07-13T09:11:03;21.50;99.90
20777;DHT22;10548;47.504;8.248;2023-07-13T09:13:50;22.00;99.90
20777;DHT22;10548;47.504;8.248;2023-07-13T09:16:20;22.10;99.90
20777;DHT22;10548;47.504;8.248;2023-07-13T09:18:51;22.30;99.90
20777;DHT22;10548;47.504;8.248;2023-07-13T09:21:26;22.70;99.90
20777;DHT22;10548;47.504;8.248;2023-07-13T09:23:56;22.20;99.90
20777;DHT22;10548;47.504;8.248;2023-07-13T09:26:28;22.20;99.90
20777;DHT22;10548;47.504;8.248;2023-07-13T09:29:06;22.50;99.90
20777;DHT22;10548;47.504;8.248;2023-07-13T09:31:57;22.90;99.90
20777;DHT22;10548;47.504;8.248;2023-07-13T09:34:28;22.80;99.90
20777;DHT22;10548;47.504;8.248;2023-07-13T09:36:57;23.70;94.60
20777;DHT22;10548;47.504;8.248;2023-07-13T09:39:34;23.50;94.10
20777;DHT22;10548;47.504;8.248;2023-07-13T09:42:17;23.40;95.60
20777;DHT22;10548;47.504;8.248;2023-07-13T09:45:02;22.30;94.80
20777;DHT22;10548;47.504;8.248;2023-07-13T09:47:32;22.50;94.70
20777;DHT22;10548;47.504;8.248;2023-07-13T09:50:02;22.50;92.50
20777;DHT22;10548;47.504;8.248;2023-07-13T09:52:42;22.60;94.60
20777;DHT22;10548;47.504;8.248;2023-07-13T09:55:47;22.80;92.30
20777;DHT22;10548;47.504;8.248;2023-07-13T09:58:22;23.50;93.80
20777;DHT22;10548;47.504;8.248;2023-07-13T10:00:56;23.50;90.70
20777;DHT22;10548;47.504;8.248;2023-07-13T10:03:29;23.60;91.10
20777;DHT22;10548;47.504;8.248;2023-07-13T10:06:12;22.80;94.00
20777;DHT22;10548;47.504;8.248;2023-07-13T10:08:39;22.90;89.30
20777;DHT22;10548;47.504;8.248;2023-07-13T10:11:28;23.30;90.10
20777;DHT22;10548;47.504;8.248;2023-07-13T10:14:21;23.50;88.20
20777;DHT22;10548;47.504;8.248;2023-07-13T10:16:55;24.50;87.30
20777;DHT22;10548;47.504;8.248;2023-07-13T10:19:25;24.90;74.30
20777;DHT22;10548;47.504;8.248;2023-07-13T10:21:56;24.60;72.30
20777;DHT22;10548;47.504;8.248;2023-07-13T10:24:25;23.90;73.50
20777;DHT22;10548;47.504;8.248;2023-07-13T10:30:19;23.60;84.40
20777;DHT22;10548;47.504;8.248;2023-07-13T10:32:47;23.20;80.20
20777;DHT22;10548;47.504;8.248;2023-07-13T10:35:16;23.50;82.80
20777;DHT22;10548;47.504;8.248;2023-07-13T10:38:02;23.50;81.20
20777;DHT22;10548;47.504;8.248;2023-07-13T10:40:49;23.30;79.40
20777;DHT22;10548;47.504;8.248;2023-07-13T10:43:46;23.70;83.40
20777;DHT22;10548;47.504;8.248;2023-07-13T10:46:14;23.60;81.20
20777;DHT22;10548;47.504;8.248;2023-07-13T10:48:44;24.10;82.60
20777;DHT22;10548;47.504;8.248;2023-07-13T10:51:14;24.00;85.00
20777;DHT22;10548;47.504;8.248;2023-07-13T10:53:42;23.80;82.20
20777;DHT22;10548;47.504;8.248;2023-07-13T10:56:27;23.80;81.90
20777;DHT22;10548;47.504;8.248;2023-07-13T10:59:15;23.80;82.50
20777;DHT22;10548;47.504;8.248;2023-07-13T11:02:09;24.50;81.00
20777;DHT22;10548;47.504;8.248;2023-07-13T11:04:56;24.40;72.00
20777;DHT22;10548;47.504;8.248;2023-07-13T11:07:29;23.90;76.40
20777;DHT22;10548;47.504;8.248;2023-07-13T11:09:59;23.20;71.10
20777;DHT22;10548;47.504;8.248;2023-07-13T11:12:48;23.50;73.50
20777;DHT22;10548;47.504;8.248;2023-07-13T11:15:31;24.20;72.80
20777;DHT22;10548;47.504;8.248;2023-07-13T11:18:03;24.10;70.10
20777;DHT22;10548;47.504;8.248;2023-07-13T11:20:37;24.30;68.20
20777;DHT22;10548;47.504;8.248;2023-07-13T11:23:32;24.60;64.00
20777;DHT22;10548;47.504;8.248;2023-07-13T11:26:00;24.50;63.70
20777;DHT22;10548;47.504;8.248;2023-07-13T11:28:31;24.60;61.40
20777;DHT22;10548;47.504;8.248;2023-07-13T11:31:02;24.70;66.80
20777;DHT22;10548;47.504;8.248;2023-07-13T11:33:56;24.50;60.00
20777;DHT22;10548;47.504;8.248;2023-07-13T11:36:30;23.80;67.10
20777;DHT22;10548;47.504;8.248;2023-07-13T11:39:02;23.80;65.50
20777;DHT22;10548;47.504;8.248;2023-07-13T11:41:35;23.90;64.60
20777;DHT22;10548;47.504;8.248;2023-07-13T11:44:10;24.70;62.30
20777;DHT22;10548;47.504;8.248;2023-07-13T11:46:37;25.10;59.40
20777;DHT22;10548;47.504;8.248;2023-07-13T11:49:06;24.20;61.90
20777;DHT22;10548;47.504;8.248;2023-07-13T11:51:35;24.60;65.30
20777;DHT22;10548;47.504;8.248;2023-07-13T11:54:06;24.50;67.50
20777;DHT22;10548;47.504;8.248;2023-07-13T11:56:36;24.40;68.00
20777;DHT22;10548;47.504;8.248;2023-07-13T11:59:06;24.80;66.30
20777;DHT22;10548;47.504;8.248;2023-07-13T12:01:36;25.20;61.70
20777;DHT22;10548;47.504;8.248;2023-07-13T12:04:18;25.20;59.60
20777;DHT22;10548;47.504;8.248;2023-07-13T12:06:57;25.40;59.00
20777;DHT22;10548;47.504;8.248;2023-07-13T12:09:27;26.50;61.10
20777;DHT22;10548;47.504;8.248;2023-07-13T12:11:57;26.90;54.40
20777;DHT22;10548;47.504;8.248;2023-07-13T12:14:26;27.10;55.70
20777;DHT22;10548;47.504;8.248;2023-07-13T12:16:54;26.90;54.20
20777;DHT22;10548;47.504;8.248;2023-07-13T12:19:27;25.70;55.00
20777;DHT22;10548;47.504;8.248;2023-07-13T12:21:57;26.70;52.40
20777;DHT22;10548;47.504;8.248;2023-07-13T12:24:25;26.50;53.40
20777;DHT22;10548;47.504;8.248;2023-07-13T12:27:04;26.70;52.30
20777;DHT22;10548;47.504;8.248;2023-07-13T12:29:32;26.70;51.50
20777;DHT22;10548;47.504;8.248;2023-07-13T12:32:00;26.70;51.90
20777;DHT22;10548;47.504;8.248;2023-07-13T12:34:27;26.90;50.00
20777;DHT22;10548;47.504;8.248;2023-07-13T12:36:56;26.40;51.20
20777;DHT22;10548;47.504;8.248;2023-07-13T12:39:36;26.30;54.10
20777;DHT22;10548;47.504;8.248;2023-07-13T12:42:38;26.40;51.50
20777;DHT22;10548;47.504;8.248;2023-07-13T12:45:26;26.30;51.60
20777;DHT22;10548;47.504;8.248;2023-07-13T12:48:15;25.60;52.00
20777;DHT22;10548;47.504;8.248;2023-07-13T12:50:47;25.30;52.20
20777;DHT22;10548;47.504;8.248;2023-07-13T12:53:19;25.80;55.80
20777;DHT22;10548;47.504;8.248;2023-07-13T12:55:52;26.10;55.10
20777;DHT22;10548;47.504;8.248;2023-07-13T12:58:38;25.90;55.50
20777;DHT22;10548;47.504;8.248;2023-07-13T13:01:05;25.80;52.00
20777;DHT22;10548;47.504;8.248;2023-07-13T13:03:48;25.40;52.10
20777;DHT22;10548;47.504;8.248;2023-07-13T13:06:27;26.80;51.00
20777;DHT22;10548;47.504;8.248;2023-07-13T13:08:57;27.00;49.10
20777;DHT22;10548;47.504;8.248;2023-07-13T13:11:27;26.70;48.10
20777;DHT22;10548;47.504;8.248;2023-07-13T13:13:54;27.10;51.00
20777;DHT22;10548;47.504;8.248;2023-07-13T13:16:26;27.50;48.10
20777;DHT22;10548;47.504;8.248;2023-07-13T13:21:46;26.90;47.50
20777;DHT22;10548;47.504;8.248;2023-07-13T13:24:17;25.80;52.20
20777;DHT22;10548;47.504;8.248;2023-07-13T13:26:47;24.80;56.20
20777;DHT22;10548;47.504;8.248;2023-07-13T13:29:23;25.60;55.40
20777;DHT22;10548;47.504;8.248;2023-07-13T13:31:56;25.80;47.10
20777;DHT22;10548;47.504;8.248;2023-07-13T13:34:25;25.90;47.10
20777;DHT22;10548;47.504;8.248;2023-07-13T13:36:54;26.30;45.90
20777;DHT22;10548;47.504;8.248;2023-07-13T13:39:35;27.60;43.80
20777;DHT22;10548;47.504;8.248;2023-07-13T13:42:09;26.90;42.50
20777;DHT22;10548;47.504;8.248;2023-07-13T13:44:36;25.60;48.40
20777;DHT22;10548;47.504;8.248;2023-07-13T13:47:04;25.20;49.30
20777;DHT22;10548;47.504;8.248;2023-07-13T13:49:31;26.20;45.70
20777;DHT22;10548;47.504;8.248;2023-07-13T13:51:58;26.00;46.10
20777;DHT22;10548;47.504;8.248;2023-07-13T13:54:26;26.40;47.40
20777;DHT22;10548;47.504;8.248;2023-07-13T13:56:54;26.10;41.20
20777;DHT22;10548;47.504;8.248;2023-07-13T13:59:22;25.70;43.10
20777;DHT22;10548;47.504;8.248;2023-07-13T14:01:49;25.90;43.10
20777;DHT22;10548;47.504;8.248;2023-07-13T14:04:21;26.80;43.30
20777;DHT22;10548;47.504;8.248;2023-07-13T14:06:49;26.70;42.50
20777;DHT22;10548;47.504;8.248;2023-07-13T14:09:18;25.60;44.30
20777;DHT22;10548;47.504;8.248;2023-07-13T14:11:48;26.60;43.60
20777;DHT22;10548;47.504;8.248;2023-07-13T14:14:20;27.20;39.90
20777;DHT22;10548;47.504;8.248;2023-07-13T14:16:49;26.60;39.50
20777;DHT22;10548;47.504;8.248;2023-07-13T14:19:21;25.90;44.90
20777;DHT22;10548;47.504;8.248;2023-07-13T14:21:49;26.20;44.70
20777;DHT22;10548;47.504;8.248;2023-07-13T14:24:16;26.20;43.50
20777;DHT22;10548;47.504;8.248;2023-07-13T14:26:46;27.70;39.40
20777;DHT22;10548;47.504;8.248;2023-07-13T14:29:16;27.90;37.20
20777;DHT22;10548;47.504;8.248;2023-07-13T14:31:48;27.40;37.70
20777;DHT22;10548;47.504;8.248;2023-07-13T14:34:15;26.00;44.30
20777;DHT22;10548;47.504;8.248;2023-07-13T14:36:44;27.40;37.30
20777;DHT22;10548;47.504;8.248;2023-07-13T14:39:21;27.80;36.50
20777;DHT22;10548;47.504;8.248;2023-07-13T14:41:54;28.30;39.50
20777;DHT22;10548;47.504;8.248;2023-07-13T14:44:25;26.80;38.70
20777;DHT22;10548;47.504;8.248;2023-07-13T14:46:53;26.00;38.00
20777;DHT22;10548;47.504;8.248;2023-07-13T14:49:32;27.10;39.00
20777;DHT22;10548;47.504;8.248;2023-07-13T14:52:05;26.80;39.00
20777;DHT22;10548;47.504;8.248;2023-07-13T14:54:38;25.70;37.10
20777;DHT22;10548;47.504;8.248;2023-07-13T14:57:12;26.50;41.20
20777;DHT22;10548;47.504;8.248;2023-07-13T14:59:39;27.60;34.80
20777;DHT22;10548;47.504;8.248;2023-07-13T15:02:32;28.00;34.00
20777;DHT22;10548;47.504;8.248;2023-07-13T15:05:01;27.70;34.20
20777;DHT22;10548;47.504;8.248;2023-07-13T15:07:28;27.80;33.90
20777;DHT22;10548;47.504;8.248;2023-07-13T15:09:56;27.50;34.20
20777;DHT22;10548;47.504;8.248;2023-07-13T15:12:23;27.60;34.20
20777;DHT22;10548;47.504;8.248;2023-07-13T15:14:50;27.10;33.90
20777;DHT22;10548;47.504;8.248;2023-07-13T15:17:40;27.60;32.40
20777;DHT22;10548;47.504;8.248;2023-07-13T15:20:31;27.10;33.10
20777;DHT22;10548;47.504;8.248;2023-07-13T15:23:00;25.50;34.50
20777;DHT22;10548;47.504;8.248;2023-07-13T15:25:30;27.10;34.40
20777;DHT22;10548;47.504;8.248;2023-07-13T15:27:58;27.20;31.80
20777;DHT22;10548;47.504;8.248;2023-07-13T15:30:46;27.10;31.90
20777;DHT22;10548;47.504;8.248;2023-07-13T15:33:28;27.50;32.20
20777;DHT22;10548;47.504;8.248;2023-07-13T15:35:56;27.10;31.30
20777;DHT22;10548;47.504;8.248;2023-07-13T15:38:29;26.90;31.80
20777;DHT22;10548;47.504;8.248;2023-07-13T15:40:57;27.40;31.30
20777;DHT22;10548;47.504;8.248;2023-07-13T15:43:26;27.20;29.60
20777;DHT22;10548;47.504;8.248;2023-07-13T15:45:53;26.00;31.40
20777;DHT22;10548;47.504;8.248;2023-07-13T15:48:22;26.50;32.50
20777;DHT22;10548;47.504;8.248;2023-07-13T15:50:54;27.00;30.40
20777;DHT22;10548;47.504;8.248;2023-07-13T15:53:24;27.10;30.00
20777;DHT22;10548;47.504;8.248;2023-07-13T15:55:52;27.10;29.70
20777;DHT22;10548;47.504;8.248;2023-07-13T15:58:19;26.40;30.60
20777;DHT22;10548;47.504;8.248;2023-07-13T16:00:47;26.10;29.90